EIA108U EVRA-ENBR
Flight info
| Callsign | EIA108U |
|---|---|
| Flight time | 1h 47m |
| Altitude | 36000 |
| Route | LAPSA DCT RASEL DCT ENEPO DCT PESUR |
| Aircraft | A320/M-SDE3FGHIRWY/LB1 |
Departure
| Time | 2026-05-04 15:00 |
|---|---|
| Airport | Riga International Airport (EVRA) |
Arrival
| Time | 2026-05-04 16:48 |
|---|---|
| Airport | Bergen Airport, Flesland (ENBR) |
| Time | Latitude | Longitude | Altitude | Speed | Heading |
|---|---|---|---|---|---|
| 2026-05-04 14:29 | 56.92293 | 23.97676 | 42 ft | 0 kts | 186° |
| 2026-05-04 14:50 | 56.92295 | 23.97676 | 44 ft | 2 kts | 186° |
| 2026-05-04 14:51 | 56.92320 | 23.97681 | 42 ft | 3 kts | 185° |
| 2026-05-04 14:51 | 56.92340 | 23.97686 | 42 ft | 4 kts | 221° |
| 2026-05-04 14:51 | 56.92348 | 23.97721 | 39 ft | 3 kts | 275° |
| 2026-05-04 14:51 | 56.92347 | 23.97731 | 40 ft | 0 kts | 275° |
| 2026-05-04 14:54 | 56.92348 | 23.97708 | 44 ft | 4 kts | 275° |
| 2026-05-04 14:55 | 56.92352 | 23.97637 | 44 ft | 6 kts | 275° |
| 2026-05-04 14:55 | 56.92357 | 23.97544 | 44 ft | 8 kts | 281° |
| 2026-05-04 14:55 | 56.92384 | 23.97512 | 44 ft | 7 kts | 359° |
| 2026-05-04 14:55 | 56.92452 | 23.97523 | 44 ft | 10 kts | 5° |
| 2026-05-04 14:56 | 56.92510 | 23.97533 | 44 ft | 15 kts | 5° |
| 2026-05-04 14:56 | 56.92624 | 23.97552 | 44 ft | 16 kts | 5° |
| 2026-05-04 14:56 | 56.92730 | 23.97569 | 44 ft | 14 kts | 5° |
| 2026-05-04 14:56 | 56.92826 | 23.97585 | 44 ft | 13 kts | 5° |
| 2026-05-04 14:57 | 56.92912 | 23.97599 | 44 ft | 12 kts | 5° |
| 2026-05-04 14:57 | 56.92994 | 23.97613 | 44 ft | 14 kts | 5° |
| 2026-05-04 14:57 | 56.93098 | 23.97630 | 44 ft | 14 kts | 5° |
| 2026-05-04 14:57 | 56.93190 | 23.97599 | 44 ft | 13 kts | 337° |
| 2026-05-04 14:58 | 56.93272 | 23.97569 | 44 ft | 11 kts | 358° |
| 2026-05-04 14:58 | 56.93347 | 23.97579 | 44 ft | 10 kts | 5° |
| 2026-05-04 14:58 | 56.93413 | 23.97589 | 44 ft | 9 kts | 3° |
| 2026-05-04 14:58 | 56.93466 | 23.97544 | 44 ft | 10 kts | 319° |
| 2026-05-04 14:59 | 56.93490 | 23.97412 | 44 ft | 12 kts | 275° |
| 2026-05-04 14:59 | 56.93459 | 23.97296 | 43 ft | 11 kts | 200° |
| 2026-05-04 14:59 | 56.92853 | 23.97196 | 43 ft | 101 kts | 185° |
| 2026-05-04 15:00 | 56.91974 | 23.97052 | 48 ft | 150 kts | 188° |
| 2026-05-04 15:00 | 56.90922 | 23.96823 | 609 ft | 153 kts | 191° |
| 2026-05-04 15:00 | 56.89850 | 23.96630 | 1315 ft | 155 kts | 194° |
| 2026-05-04 15:01 | 56.87558 | 23.96224 | 2304 ft | 186 kts | 192° |
| 2026-05-04 15:01 | 56.86201 | 23.96000 | 2665 ft | 203 kts | 193° |
| 2026-05-04 15:01 | 56.84883 | 23.95156 | 3212 ft | 203 kts | 219° |
| 2026-05-04 15:01 | 56.83863 | 23.93251 | 3613 ft | 221 kts | 235° |
| 2026-05-04 15:02 | 56.82882 | 23.90948 | 4266 ft | 234 kts | 235° |
| 2026-05-04 15:02 | 56.81874 | 23.88586 | 5205 ft | 236 kts | 235° |
| 2026-05-04 15:02 | 56.80889 | 23.86180 | 6126 ft | 237 kts | 242° |
| 2026-05-04 15:02 | 56.80394 | 23.83333 | 6982 ft | 239 kts | 265° |
| 2026-05-04 15:03 | 56.80677 | 23.80314 | 7795 ft | 250 kts | 290° |
| 2026-05-04 15:03 | 56.81628 | 23.77581 | 8635 ft | 258 kts | 298° |
| 2026-05-04 15:03 | 56.82673 | 23.74888 | 9496 ft | 261 kts | 299° |
| 2026-05-04 15:03 | 56.83736 | 23.72162 | 10176 ft | 271 kts | 299° |
| 2026-05-04 15:04 | 56.84870 | 23.69223 | 10425 ft | 294 kts | 299° |
| 2026-05-04 15:04 | 56.86088 | 23.66061 | 10801 ft | 310 kts | 299° |
| 2026-05-04 15:04 | 56.87349 | 23.62801 | 11465 ft | 316 kts | 300° |
| 2026-05-04 15:04 | 56.88626 | 23.59497 | 12186 ft | 320 kts | 300° |
| 2026-05-04 15:05 | 56.89916 | 23.56147 | 12908 ft | 324 kts | 299° |
| 2026-05-04 15:05 | 56.91200 | 23.52790 | 13595 ft | 328 kts | 299° |
| 2026-05-04 15:05 | 56.92512 | 23.49352 | 14225 ft | 331 kts | 299° |
| 2026-05-04 15:05 | 56.93839 | 23.45872 | 14867 ft | 334 kts | 299° |
| 2026-05-04 15:06 | 56.95178 | 23.42364 | 15515 ft | 337 kts | 299° |
| 2026-05-04 15:06 | 56.96528 | 23.38825 | 16159 ft | 340 kts | 299° |
| 2026-05-04 15:06 | 56.97883 | 23.35258 | 16798 ft | 343 kts | 299° |
| 2026-05-04 15:07 | 57.00618 | 23.28029 | 18049 ft | 348 kts | 299° |
| 2026-05-04 15:07 | 57.02004 | 23.24357 | 18588 ft | 351 kts | 299° |
| 2026-05-04 15:07 | 57.03398 | 23.20669 | 19134 ft | 353 kts | 298° |
| 2026-05-04 15:07 | 57.04801 | 23.16955 | 19664 ft | 355 kts | 298° |
| 2026-05-04 15:08 | 57.06215 | 23.13204 | 20191 ft | 357 kts | 298° |
| 2026-05-04 15:08 | 57.07632 | 23.09428 | 20720 ft | 360 kts | 298° |
| 2026-05-04 15:08 | 57.09054 | 23.05631 | 21245 ft | 362 kts | 298° |
| 2026-05-04 15:08 | 57.10485 | 23.01804 | 21780 ft | 365 kts | 298° |
| 2026-05-04 15:09 | 57.11929 | 22.97941 | 22265 ft | 368 kts | 298° |
| 2026-05-04 15:09 | 57.13384 | 22.94051 | 22746 ft | 370 kts | 298° |
| 2026-05-04 15:09 | 57.14847 | 22.90135 | 23222 ft | 373 kts | 298° |
| 2026-05-04 15:10 | 57.17780 | 22.82260 | 24037 ft | 377 kts | 298° |
| 2026-05-04 15:10 | 57.19264 | 22.78263 | 24439 ft | 379 kts | 297° |
| 2026-05-04 15:10 | 57.22246 | 22.70196 | 25225 ft | 382 kts | 297° |
| 2026-05-04 15:11 | 57.23742 | 22.66140 | 25615 ft | 383 kts | 297° |
| 2026-05-04 15:11 | 57.25244 | 22.62052 | 26001 ft | 385 kts | 297° |
| 2026-05-04 15:11 | 57.26748 | 22.57953 | 26375 ft | 387 kts | 297° |
| 2026-05-04 15:11 | 57.28260 | 22.53831 | 26799 ft | 388 kts | 297° |
| 2026-05-04 15:12 | 57.29779 | 22.49691 | 27167 ft | 391 kts | 297° |
| 2026-05-04 15:12 | 57.31311 | 22.45510 | 27500 ft | 394 kts | 297° |
| 2026-05-04 15:12 | 57.32851 | 22.41302 | 27837 ft | 396 kts | 297° |
| 2026-05-04 15:12 | 57.34397 | 22.37063 | 28198 ft | 398 kts | 297° |
| 2026-05-04 15:13 | 57.35943 | 22.32807 | 28551 ft | 400 kts | 297° |
| 2026-05-04 15:13 | 57.37498 | 22.28525 | 28887 ft | 401 kts | 297° |
| 2026-05-04 15:13 | 57.39061 | 22.24216 | 29212 ft | 403 kts | 296° |
| 2026-05-04 15:13 | 57.40626 | 22.19895 | 29533 ft | 405 kts | 296° |
| 2026-05-04 15:14 | 57.42203 | 22.15542 | 29827 ft | 407 kts | 296° |
| 2026-05-04 15:14 | 57.43782 | 22.11170 | 30091 ft | 408 kts | 296° |
| 2026-05-04 15:14 | 57.45366 | 22.06770 | 30370 ft | 410 kts | 297° |
| 2026-05-04 15:14 | 57.46934 | 22.02401 | 30593 ft | 413 kts | 297° |
| 2026-05-04 15:15 | 57.48530 | 21.97947 | 30813 ft | 415 kts | 297° |
| 2026-05-04 15:15 | 57.50130 | 21.93474 | 31101 ft | 415 kts | 297° |
| 2026-05-04 15:15 | 57.51728 | 21.89001 | 31413 ft | 415 kts | 297° |
| 2026-05-04 15:16 | 57.54919 | 21.80037 | 32011 ft | 416 kts | 297° |
| 2026-05-04 15:16 | 57.56512 | 21.75543 | 32310 ft | 416 kts | 297° |
| 2026-05-04 15:16 | 57.59702 | 21.66534 | 32894 ft | 417 kts | 297° |
| 2026-05-04 15:17 | 57.61301 | 21.62022 | 33196 ft | 417 kts | 298° |
| 2026-05-04 15:17 | 57.64493 | 21.52994 | 33900 ft | 416 kts | 298° |
| 2026-05-04 15:17 | 57.66080 | 21.48489 | 34158 ft | 415 kts | 298° |
| 2026-05-04 15:18 | 57.67668 | 21.43968 | 34421 ft | 415 kts | 298° |
| 2026-05-04 15:18 | 57.69251 | 21.39446 | 34666 ft | 415 kts | 298° |
| 2026-05-04 15:18 | 57.70828 | 21.34925 | 34894 ft | 416 kts | 298° |
| 2026-05-04 15:19 | 57.73982 | 21.25859 | 35338 ft | 416 kts | 298° |
| 2026-05-04 15:19 | 57.75561 | 21.21313 | 35546 ft | 416 kts | 298° |
| 2026-05-04 15:19 | 57.78721 | 21.12214 | 35781 ft | 416 kts | 298° |
| 2026-05-04 15:20 | 57.81856 | 21.03141 | 35778 ft | 413 kts | 297° |
| 2026-05-04 15:20 | 57.84963 | 20.94092 | 35781 ft | 412 kts | 297° |
| 2026-05-04 15:21 | 57.88061 | 20.85031 | 35803 ft | 412 kts | 297° |
| 2026-05-04 15:22 | 57.92713 | 20.71397 | 35778 ft | 413 kts | 297° |
| 2026-05-04 15:22 | 57.97353 | 20.57698 | 35799 ft | 413 kts | 297° |
| 2026-05-04 15:23 | 58.00436 | 20.48547 | 35783 ft | 413 kts | 297° |
| 2026-05-04 15:23 | 58.03317 | 20.39293 | 35781 ft | 408 kts | 289° |
| 2026-05-04 15:24 | 58.07798 | 20.19631 | 35772 ft | 407 kts | 289° |
| 2026-05-04 15:25 | 58.10033 | 20.09798 | 35772 ft | 407 kts | 288° |
| 2026-05-04 15:26 | 58.13371 | 19.95008 | 35787 ft | 407 kts | 289° |
| 2026-05-04 15:26 | 58.16685 | 19.80206 | 35774 ft | 407 kts | 288° |
| 2026-05-04 15:27 | 58.19977 | 19.65380 | 35766 ft | 407 kts | 288° |
| 2026-05-04 15:28 | 58.23260 | 19.50518 | 35762 ft | 407 kts | 288° |
| 2026-05-04 15:29 | 58.26525 | 19.35616 | 35775 ft | 407 kts | 288° |
| 2026-05-04 15:30 | 58.34056 | 19.00831 | 35753 ft | 407 kts | 288° |
| 2026-05-04 15:31 | 58.37266 | 18.85835 | 35759 ft | 407 kts | 288° |
| 2026-05-04 15:32 | 58.42562 | 18.60844 | 35750 ft | 406 kts | 288° |
| 2026-05-04 15:34 | 58.47800 | 18.35829 | 35744 ft | 406 kts | 288° |
| 2026-05-04 15:34 | 58.50916 | 18.20781 | 35743 ft | 406 kts | 288° |
| 2026-05-04 15:35 | 58.54013 | 18.05720 | 35740 ft | 406 kts | 288° |
| 2026-05-04 15:36 | 58.57095 | 17.90618 | 35742 ft | 405 kts | 288° |
| 2026-05-04 15:36 | 58.59133 | 17.80546 | 35742 ft | 405 kts | 288° |
| 2026-05-04 15:37 | 58.61168 | 17.70463 | 35743 ft | 405 kts | 288° |
| 2026-05-04 15:37 | 58.63198 | 17.60376 | 35741 ft | 405 kts | 288° |
| 2026-05-04 15:38 | 58.65216 | 17.50291 | 35735 ft | 405 kts | 288° |
| 2026-05-04 15:38 | 58.67217 | 17.40200 | 35736 ft | 404 kts | 288° |
| 2026-05-04 15:39 | 58.68882 | 17.31799 | 35736 ft | 404 kts | 288° |
| 2026-05-04 15:40 | 58.71874 | 17.16642 | 35758 ft | 404 kts | 288° |
| 2026-05-04 15:40 | 58.73851 | 17.06528 | 35755 ft | 403 kts | 288° |
| 2026-05-04 15:41 | 58.75815 | 16.96423 | 35753 ft | 403 kts | 288° |
| 2026-05-04 15:41 | 58.77769 | 16.86305 | 35737 ft | 402 kts | 287° |
| 2026-05-04 15:42 | 58.79706 | 16.76244 | 35751 ft | 402 kts | 287° |
| 2026-05-04 15:42 | 58.81645 | 16.66136 | 35745 ft | 401 kts | 287° |
| 2026-05-04 15:43 | 58.83571 | 16.56028 | 35759 ft | 400 kts | 287° |
| 2026-05-04 15:43 | 58.85475 | 16.45944 | 35752 ft | 399 kts | 287° |
| 2026-05-04 15:44 | 58.87377 | 16.35867 | 35747 ft | 398 kts | 287° |
| 2026-05-04 15:44 | 58.89265 | 16.25808 | 35741 ft | 398 kts | 287° |
| 2026-05-04 15:45 | 58.91145 | 16.15743 | 35721 ft | 398 kts | 287° |
| 2026-05-04 15:45 | 58.93018 | 16.05657 | 35745 ft | 398 kts | 287° |
| 2026-05-04 15:46 | 58.94876 | 15.95591 | 35728 ft | 397 kts | 287° |
| 2026-05-04 15:46 | 58.96716 | 15.85587 | 35727 ft | 396 kts | 286° |
| 2026-05-04 15:47 | 58.98551 | 15.75520 | 35733 ft | 396 kts | 286° |
| 2026-05-04 15:47 | 59.00375 | 15.65445 | 35724 ft | 395 kts | 286° |
| 2026-05-04 15:48 | 59.02191 | 15.55366 | 35714 ft | 395 kts | 286° |
| 2026-05-04 15:48 | 59.04913 | 15.40252 | 35733 ft | 395 kts | 286° |
| 2026-05-04 15:49 | 59.06715 | 15.30163 | 35740 ft | 395 kts | 286° |
| 2026-05-04 15:49 | 59.08504 | 15.20081 | 35737 ft | 395 kts | 286° |
| 2026-05-04 15:50 | 59.10284 | 15.09976 | 35738 ft | 394 kts | 286° |
| 2026-05-04 15:50 | 59.12056 | 14.99881 | 35719 ft | 394 kts | 286° |
| 2026-05-04 15:51 | 59.13816 | 14.89759 | 35716 ft | 394 kts | 285° |
| 2026-05-04 15:51 | 59.15555 | 14.79702 | 35737 ft | 394 kts | 285° |
| 2026-05-04 15:52 | 59.17303 | 14.69590 | 35729 ft | 394 kts | 285° |
| 2026-05-04 15:52 | 59.19048 | 14.59447 | 35726 ft | 394 kts | 285° |
| 2026-05-04 15:53 | 59.20778 | 14.49315 | 35728 ft | 394 kts | 285° |
| 2026-05-04 15:53 | 59.22497 | 14.39168 | 35724 ft | 393 kts | 285° |
| 2026-05-04 15:54 | 59.24211 | 14.29005 | 35720 ft | 393 kts | 285° |
| 2026-05-04 15:54 | 59.25915 | 14.18856 | 35750 ft | 393 kts | 285° |
| 2026-05-04 15:55 | 59.27611 | 14.08739 | 35748 ft | 391 kts | 285° |
| 2026-05-04 15:55 | 59.29286 | 13.98635 | 35739 ft | 390 kts | 285° |
| 2026-05-04 15:56 | 59.30947 | 13.88537 | 35736 ft | 389 kts | 285° |
| 2026-05-04 15:56 | 59.32600 | 13.78450 | 35737 ft | 389 kts | 285° |
| 2026-05-04 15:57 | 59.34244 | 13.68346 | 35729 ft | 389 kts | 285° |
| 2026-05-04 15:57 | 59.35879 | 13.58250 | 35728 ft | 388 kts | 284° |
| 2026-05-04 15:58 | 59.37495 | 13.48228 | 35726 ft | 388 kts | 284° |
| 2026-05-04 15:58 | 59.39117 | 13.38132 | 35729 ft | 388 kts | 284° |
| 2026-05-04 15:59 | 59.40731 | 13.28024 | 35721 ft | 388 kts | 284° |
| 2026-05-04 15:59 | 59.42338 | 13.17908 | 35728 ft | 388 kts | 284° |
| 2026-05-04 16:00 | 59.43935 | 13.07764 | 35701 ft | 388 kts | 284° |
| 2026-05-04 16:00 | 59.45523 | 12.97613 | 35712 ft | 388 kts | 284° |
| 2026-05-04 16:01 | 59.47103 | 12.87460 | 35705 ft | 389 kts | 284° |
| 2026-05-04 16:01 | 59.48675 | 12.77289 | 35706 ft | 389 kts | 284° |
| 2026-05-04 16:02 | 59.50252 | 12.67084 | 35709 ft | 389 kts | 284° |
| 2026-05-04 16:03 | 59.52587 | 12.51827 | 35706 ft | 389 kts | 283° |
| 2026-05-04 16:03 | 59.54140 | 12.41553 | 35709 ft | 389 kts | 283° |
| 2026-05-04 16:04 | 59.55674 | 12.31377 | 35704 ft | 389 kts | 283° |
| 2026-05-04 16:04 | 59.57964 | 12.16030 | 35706 ft | 389 kts | 283° |
| 2026-05-04 16:05 | 59.59483 | 12.05763 | 35709 ft | 389 kts | 283° |
| 2026-05-04 16:06 | 59.61723 | 11.90355 | 35711 ft | 389 kts | 282° |
| 2026-05-04 16:07 | 59.64589 | 11.69726 | 35722 ft | 388 kts | 282° |
| 2026-05-04 16:08 | 59.67410 | 11.49146 | 35706 ft | 385 kts | 282° |
| 2026-05-04 16:09 | 59.70877 | 11.23576 | 35696 ft | 385 kts | 282° |
| 2026-05-04 16:10 | 59.73632 | 11.03074 | 35718 ft | 384 kts | 282° |
| 2026-05-04 16:11 | 59.76334 | 10.82570 | 35716 ft | 384 kts | 282° |
| 2026-05-04 16:12 | 59.80327 | 10.51806 | 35737 ft | 383 kts | 282° |
| 2026-05-04 16:13 | 59.82939 | 10.31330 | 35730 ft | 382 kts | 282° |
| 2026-05-04 16:14 | 59.85514 | 10.10877 | 35722 ft | 381 kts | 282° |
| 2026-05-04 16:16 | 59.88671 | 9.85284 | 35723 ft | 380 kts | 282° |
| 2026-05-04 16:17 | 59.91784 | 9.59809 | 35721 ft | 379 kts | 281° |
| 2026-05-04 16:18 | 59.94229 | 9.39372 | 35721 ft | 379 kts | 281° |
| 2026-05-04 16:19 | 59.97247 | 9.13750 | 35711 ft | 380 kts | 281° |
| 2026-05-04 16:20 | 60.00223 | 8.88013 | 35727 ft | 381 kts | 281° |
| 2026-05-04 16:22 | 60.02952 | 8.63902 | 35714 ft | 382 kts | 280° |
| 2026-05-04 16:22 | 60.04715 | 8.48207 | 34648 ft | 387 kts | 281° |
| 2026-05-04 16:23 | 60.06417 | 8.32852 | 32584 ft | 385 kts | 281° |
| 2026-05-04 16:24 | 60.08615 | 8.12652 | 30671 ft | 358 kts | 281° |
| 2026-05-04 16:25 | 60.09646 | 8.03076 | 29744 ft | 346 kts | 281° |
| 2026-05-04 16:26 | 60.11585 | 7.84949 | 27983 ft | 318 kts | 281° |
| 2026-05-04 16:26 | 60.12910 | 7.72433 | 26824 ft | 297 kts | 281° |
| 2026-05-04 16:27 | 60.13743 | 7.64509 | 26106 ft | 284 kts | 280° |
| 2026-05-04 16:28 | 60.14910 | 7.53156 | 25085 ft | 273 kts | 279° |
| 2026-05-04 16:28 | 60.14848 | 7.41112 | 23913 ft | 291 kts | 270° |
| 2026-05-04 16:29 | 60.14530 | 7.25164 | 22364 ft | 280 kts | 270° |
| 2026-05-04 16:30 | 60.14288 | 7.13561 | 21170 ft | 275 kts | 269° |
| 2026-05-04 16:31 | 60.14122 | 7.05944 | 20393 ft | 272 kts | 269° |
| 2026-05-04 16:31 | 60.13879 | 6.94655 | 19256 ft | 268 kts | 269° |
| 2026-05-04 16:32 | 60.13627 | 6.83520 | 18178 ft | 265 kts | 269° |
| 2026-05-04 16:33 | 60.13457 | 6.76176 | 17402 ft | 263 kts | 268° |
| 2026-05-04 16:33 | 60.13279 | 6.68866 | 16690 ft | 264 kts | 268° |
| 2026-05-04 16:34 | 60.13097 | 6.61483 | 15982 ft | 267 kts | 268° |
| 2026-05-04 16:34 | 60.13005 | 6.57747 | 15645 ft | 268 kts | 268° |
| 2026-05-04 16:35 | 60.12720 | 6.46527 | 14710 ft | 268 kts | 268° |
| 2026-05-04 16:35 | 60.12419 | 6.35342 | 13809 ft | 267 kts | 268° |
| 2026-05-04 16:36 | 60.12319 | 6.31629 | 13492 ft | 267 kts | 268° |
| 2026-05-04 16:36 | 60.12116 | 6.24207 | 12823 ft | 266 kts | 268° |
| 2026-05-04 16:37 | 60.11911 | 6.16803 | 12174 ft | 266 kts | 267° |
| 2026-05-04 16:37 | 60.11805 | 6.13107 | 11845 ft | 265 kts | 267° |
| 2026-05-04 16:37 | 60.11589 | 6.05725 | 11169 ft | 265 kts | 267° |
| 2026-05-04 16:38 | 60.11376 | 5.98348 | 10393 ft | 265 kts | 267° |
| 2026-05-04 16:39 | 60.11046 | 5.87402 | 9285 ft | 258 kts | 267° |
| 2026-05-04 16:39 | 60.10829 | 5.80334 | 8528 ft | 251 kts | 267° |
| 2026-05-04 16:40 | 60.10608 | 5.73400 | 7778 ft | 248 kts | 267° |
| 2026-05-04 16:40 | 60.10389 | 5.66548 | 7046 ft | 244 kts | 267° |
| 2026-05-04 16:41 | 60.10170 | 5.59813 | 6347 ft | 240 kts | 268° |
| 2026-05-04 16:41 | 60.09838 | 5.49927 | 5241 ft | 234 kts | 268° |
| 2026-05-04 16:42 | 60.09676 | 5.40470 | 4382 ft | 220 kts | 281° |
| 2026-05-04 16:43 | 60.10239 | 5.34595 | 3901 ft | 208 kts | 281° |
| 2026-05-04 16:43 | 60.11293 | 5.29589 | 3635 ft | 188 kts | 313° |
| 2026-05-04 16:43 | 60.12293 | 5.27978 | 3458 ft | 184 kts | 330° |
| 2026-05-04 16:44 | 60.16996 | 5.25940 | 2545 ft | 167 kts | 348° |
| 2026-05-04 16:45 | 60.19266 | 5.25184 | 2079 ft | 164 kts | 348° |
| 2026-05-04 16:46 | 60.22361 | 5.24152 | 1447 ft | 136 kts | 348° |
| 2026-05-04 16:46 | 60.24159 | 5.23550 | 1051 ft | 129 kts | 348° |
| 2026-05-04 16:47 | 60.25915 | 5.22963 | 683 ft | 126 kts | 346° |
| 2026-05-04 16:47 | 60.27677 | 5.22373 | 337 ft | 128 kts | 348° |
| 2026-05-04 16:48 | 60.29603 | 5.21727 | 173 ft | 31 kts | 350° |
| 2026-05-04 16:48 | 60.29704 | 5.21747 | 174 ft | 12 kts | 57° |
| 2026-05-04 16:49 | 60.29720 | 5.21988 | 170 ft | 4 kts | 118° |
| 2026-05-04 16:49 | 60.29657 | 5.22032 | 170 ft | 7 kts | 169° |
| 2026-05-04 16:50 | 60.29488 | 5.22090 | 177 ft | 11 kts | 170° |
| 2026-05-04 16:50 | 60.29320 | 5.22148 | 178 ft | 11 kts | 170° |
| 2026-05-04 16:51 | 60.29134 | 5.22210 | 174 ft | 19 kts | 170° |
| 2026-05-04 16:51 | 60.29007 | 5.22251 | 174 ft | 18 kts | 171° |
| 2026-05-04 16:51 | 60.28808 | 5.22335 | 174 ft | 10 kts | 131° |
| 2026-05-04 16:52 | 60.28851 | 5.22511 | 174 ft | 6 kts | 62° |
| 2026-05-04 16:52 | 60.28863 | 5.22557 | 174 ft | 1 kts | 62° |
| 2026-05-04 16:53 | 60.28863 | 5.22560 | 174 ft | 0 kts | 62° |